Time;durP1;ratioP1;P1;durP2;ratioP2;P2;SDS_P1;SDS_P2;PMS_P1;PMS_P2;Temp;Humidity;BMP_temperature;BMP_pressure;BME280_temperature;BME280_humidity;BME280_pressure;Samples;Min_cycle;Max_cycle;Signal;HPM_P1;HPM_P2
2023/08/26 00:02:00;;;;;;;12.30;5.50;;;;;;;15.46;100.00;100921.66;105650;1253;64514;-52
2023/08/26 00:04:28;;;;;;;7.70;5.40;;;;;;;15.48;100.00;100915.33;105681;1257;71445;-52
2023/08/26 00:06:56;;;;;;;9.60;4.90;;;;;;;15.53;100.00;100908.24;105658;1253;61697;-53
2023/08/26 00:09:23;;;;;;;9.10;5.40;;;;;;;15.56;100.00;100905.56;105778;1258;59689;-54
2023/08/26 00:11:51;;;;;;;10.30;5.10;;;;;;;15.51;100.00;100904.11;105680;1257;73022;-51
2023/08/26 00:14:19;;;;;;;12.80;5.10;;;;;;;15.44;100.00;100904.85;105681;1254;64455;-55
2023/08/26 00:16:47;;;;;;;11.70;5.80;;;;;;;15.38;100.00;100908.16;105730;1259;73125;-53
2023/08/26 00:19:16;;;;;;;9.30;5.30;;;;;;;15.33;100.00;100913.20;105696;1258;61649;-54
2023/08/26 00:21:44;;;;;;;11.00;5.70;;;;;;;15.28;100.00;100920.48;105709;1254;60011;-52
2023/08/26 00:24:12;;;;;;;5.50;4.80;;;;;;;15.22;100.00;100924.84;105730;1258;72847;-53
2023/08/26 00:26:40;;;;;;;8.30;6.00;;;;;;;15.17;100.00;100928.11;105916;1253;64488;-52
2023/08/26 00:29:08;;;;;;;10.90;5.60;;;;;;;15.12;100.00;100931.55;105865;1254;72631;-53
2023/08/26 00:31:35;;;;;;;12.10;6.50;;;;;;;15.07;100.00;100932.40;105738;1261;60426;-52
2023/08/26 00:34:04;;;;;;;13.40;6.20;;;;;;;15.02;100.00;100931.69;105871;1254;60014;-52
2023/08/26 00:36:32;;;;;;;12.60;5.90;;;;;;;14.98;100.00;100931.80;105896;1256;71553;-52
2023/08/26 00:39:00;;;;;;;15.10;5.40;;;;;;;14.94;100.00;100932.94;105685;1260;64172;-50
2023/08/26 00:41:28;;;;;;;10.20;6.50;;;;;;;14.91;100.00;100938.61;105929;1256;71396;-52
2023/08/26 00:43:55;;;;;;;9.10;5.90;;;;;;;14.86;100.00;100940.48;105688;1260;60389;-53
2023/08/26 00:46:23;;;;;;;10.20;7.20;;;;;;;14.84;100.00;100939.84;105723;1257;59524;-54
2023/08/26 00:48:51;;;;;;;11.00;7.20;;;;;;;14.86;100.00;100937.18;105941;1256;72992;-54
2023/08/26 00:51:20;;;;;;;15.20;7.10;;;;;;;14.91;100.00;100932.69;105732;1257;63207;-53
2023/08/26 00:53:48;;;;;;;20.90;6.40;;;;;;;14.94;100.00;100931.55;105716;1260;71805;-51
2023/08/26 00:56:16;;;;;;;13.10;7.20;;;;;;;14.95;100.00;100936.05;105725;1252;60006;-51
2023/08/26 00:58:44;;;;;;;13.40;7.00;;;;;;;14.99;100.00;100932.48;105701;1254;59625;-53
2023/08/26 01:01:14;;;;;;;11.10;6.40;;;;;;;15.00;100.00;100929.46;105866;1257;71205;-51
2023/08/26 01:03:42;;;;;;;7.50;6.50;;;;;;;15.01;100.00;100926.85;105761;1257;63224;-52
2023/08/26 01:06:11;;;;;;;12.00;6.70;;;;;;;15.02;100.00;100930.98;105726;1258;72599;-52
2023/08/26 01:08:39;;;;;;;17.20;7.00;;;;;;;15.02;100.00;100933.58;105891;1258;60491;-53
2023/08/26 01:11:28;;;;;;;17.50;7.40;;;;;;;15.01;100.00;100939.34;105707;1254;59954;-53
2023/08/26 01:14:20;;;;;;;10.30;6.10;;;;;;;15.00;100.00;100940.77;105931;1262;71638;-53
2023/08/26 01:16:48;;;;;;;9.60;6.60;;;;;;;14.96;100.00;100940.19;105855;1257;63217;-53
2023/08/26 01:19:32;;;;;;;15.30;7.80;;;;;;;14.89;100.00;100945.77;105691;1260;71073;-51
2023/08/26 01:22:05;;;;;;;15.80;7.40;;;;;;;14.83;100.00;100946.11;105747;1257;60191;-52
2023/08/26 01:24:33;;;;;;;12.10;7.60;;;;;;;14.78;100.00;100941.40;105726;1255;59566;-52
2023/08/26 01:27:01;;;;;;;8.90;6.80;;;;;;;14.74;100.00;100941.33;105716;1254;71800;-53
2023/08/26 01:29:29;;;;;;;15.50;6.70;;;;;;;14.70;100.00;100945.60;105676;1254;64533;-57
2023/08/26 01:32:04;;;;;;;13.90;8.00;;;;;;;14.64;100.00;100947.64;105537;1261;72643;-53
2023/08/26 01:34:33;;;;;;;20.00;8.30;;;;;;;14.58;100.00;100954.23;105660;1257;59651;-54
2023/08/26 01:37:00;;;;;;;19.90;8.90;;;;;;;14.52;100.00;100957.87;105696;1254;60033;-54
2023/08/26 01:39:28;;;;;;;11.40;7.90;;;;;;;14.47;100.00;100958.86;105620;1254;71799;-52
2023/08/26 01:41:56;;;;;;;16.70;8.20;;;;;;;14.42;100.00;100953.29;105701;1259;64180;-51
2023/08/26 01:44:24;;;;;;;17.00;8.50;;;;;;;14.38;100.00;100952.34;105657;1261;72686;-51
2023/08/26 01:46:53;;;;;;;20.10;9.00;;;;;;;14.35;100.00;100948.95;105604;1260;60429;-53
2023/08/26 01:49:21;;;;;;;14.10;9.00;;;;;;;14.33;100.00;100950.91;105728;1260;59661;-52
2023/08/26 01:51:48;;;;;;;16.70;9.30;;;;;;;14.30;100.00;100953.59;105654;1254;71830;-52
2023/08/26 01:54:16;;;;;;;30.10;10.70;;;;;;;14.28;100.00;100957.12;105663;1258;63137;-52
2023/08/26 01:56:44;;;;;;;37.90;9.70;;;;;;;14.26;100.00;100960.80;105643;1254;71852;-53
2023/08/26 01:59:12;;;;;;;28.30;10.40;;;;;;;14.23;100.00;100961.21;105670;1259;61647;-53
2023/08/26 02:01:39;;;;;;;28.80;9.50;;;;;;;14.20;100.00;100963.73;105672;1259;59994;-52
2023/08/26 02:04:07;;;;;;;22.20;9.70;;;;;;;14.17;100.00;100966.09;105671;1260;73037;-52
2023/08/26 02:06:37;;;;;;;21.20;9.90;;;;;;;14.17;100.00;100963.98;105731;1260;63730;-51
2023/08/26 02:09:07;;;;;;;16.70;9.90;;;;;;;14.18;100.00;100962.39;105717;1254;72613;-52
2023/08/26 02:11:34;;;;;;;16.30;9.30;;;;;;;14.20;100.00;100963.05;105719;1256;59807;-53
2023/08/26 02:14:03;;;;;;;21.10;11.40;;;;;;;14.21;100.00;100965.10;105707;1261;59804;-53
2023/08/26 02:16:31;;;;;;;20.40;10.50;;;;;;;14.22;100.00;100962.82;105671;1254;71758;-52
2023/08/26 02:18:59;;;;;;;23.50;9.70;;;;;;;14.22;100.00;100960.38;105750;1258;64388;-53
2023/08/26 02:21:26;;;;;;;14.00;9.30;;;;;;;14.23;100.00;100961.90;105872;1255;71445;-52
2023/08/26 02:23:54;;;;;;;20.70;10.50;;;;;;;14.23;100.00;100957.94;105724;1254;61656;-53
2023/08/26 02:26:22;;;;;;;15.60;9.60;;;;;;;14.24;100.00;100955.81;105684;1258;59665;-52
2023/08/26 02:28:49;;;;;;;17.80;10.10;;;;;;;14.30;100.00;100951.68;105714;1253;71934;-52
2023/08/26 02:31:18;;;;;;;15.20;9.30;;;;;;;14.36;100.00;100949.08;105694;1261;63220;-52
2023/08/26 02:33:46;;;;;;;19.40;8.80;;;;;;;14.39;100.00;100944.15;105700;1260;72674;-53
2023/08/26 02:36:13;;;;;;;22.20;9.90;;;;;;;14.38;100.00;100945.21;105664;1254;60565;-53
2023/08/26 02:38:41;;;;;;;20.60;9.60;;;;;;;14.35;100.00;100942.89;105694;1254;60420;-52
2023/08/26 02:41:09;;;;;;;16.40;9.30;;;;;;;14.34;100.00;100946.89;105662;1254;72653;-52
2023/08/26 02:43:37;;;;;;;19.30;10.30;;;;;;;14.34;100.00;100944.82;105717;1254;63234;-52
2023/08/26 02:46:05;;;;;;;20.30;10.00;;;;;;;14.36;100.00;100946.15;105747;1254;70592;-53
2023/08/26 02:48:33;;;;;;;19.90;9.00;;;;;;;14.37;100.00;100950.09;105676;1258;61642;-51
2023/08/26 02:51:02;;;;;;;17.90;9.70;;;;;;;14.37;100.00;100947.31;105703;1259;60340;-52
2023/08/26 02:53:32;;;;;;;15.90;9.40;;;;;;;14.36;100.00;100947.00;105720;1257;73845;-52
2023/08/26 02:56:00;;;;;;;18.90;9.10;;;;;;;14.35;100.00;100942.34;105709;1257;63118;-53
2023/08/26 02:58:28;;;;;;;17.90;9.00;;;;;;;14.34;100.00;100938.73;105692;1257;71458;-55
2023/08/26 03:01:00;;;;;;;18.80;9.90;;;;;;;14.33;100.00;100939.79;105689;1259;60885;-54
2023/08/26 03:03:29;;;;;;;21.10;9.10;;;;;;;14.34;100.00;100937.87;105641;1255;60361;-52
2023/08/26 03:05:57;;;;;;;13.00;8.50;;;;;;;14.33;100.00;100935.98;105678;1257;72590;-53
2023/08/26 03:08:25;;;;;;;15.50;8.10;;;;;;;14.33;100.00;100936.31;105669;1254;64409;-53
2023/08/26 03:11:04;;;;;;;20.30;9.20;;;;;;;14.31;100.00;100938.45;105721;1254;72622;-53
2023/08/26 03:13:32;;;;;;;18.70;9.30;;;;;;;14.30;100.00;100939.20;105723;1258;60514;-53
2023/08/26 03:16:07;;;;;;;16.20;8.50;;;;;;;14.30;100.00;100934.50;105714;1257;60499;-53
2023/08/26 03:18:36;;;;;;;15.20;8.40;;;;;;;14.30;100.00;100935.70;105727;1254;72640;-52
2023/08/26 03:21:05;;;;;;;14.40;8.20;;;;;;;14.28;100.00;100936.11;105708;1253;64389;-51
2023/08/26 03:23:34;;;;;;;18.90;8.80;;;;;;;14.27;100.00;100932.82;105716;1254;71687;-53
2023/08/26 03:26:03;;;;;;;15.70;8.30;;;;;;;14.27;100.00;100932.83;105747;1254;60531;-52
2023/08/26 03:28:31;;;;;;;15.30;9.00;;;;;;;14.27;100.00;100929.70;105725;1258;60471;-52
2023/08/26 03:31:05;;;;;;;12.50;8.00;;;;;;;14.28;100.00;100933.86;105694;1253;73797;-52
2023/08/26 03:33:35;;;;;;;12.10;8.10;;;;;;;14.29;100.00;100933.48;105949;1257;64367;-52
2023/08/26 03:36:04;;;;;;;16.70;7.90;;;;;;;14.32;100.00;100937.75;105821;1258;72634;-52
2023/08/26 03:38:32;;;;;;;16.30;8.40;;;;;;;14.37;100.00;100934.32;105943;1253;61609;-51
2023/08/26 03:41:04;;;;;;;13.60;7.80;;;;;;;14.42;100.00;100932.10;105719;1253;60536;-52
2023/08/26 03:43:33;;;;;;;10.20;7.70;;;;;;;14.49;100.00;100934.50;105889;1254;73860;-52
2023/08/26 03:46:01;;;;;;;12.80;7.90;;;;;;;14.58;100.00;100938.77;105854;1258;63174;-52
2023/08/26 03:48:29;;;;;;;16.30;7.90;;;;;;;14.65;100.00;100938.07;105680;1254;72639;-52
2023/08/26 03:50:57;;;;;;;9.50;6.90;;;;;;;14.72;100.00;100939.30;105819;1254;60619;-54
2023/08/26 03:53:25;;;;;;;13.50;6.90;;;;;;;14.82;100.00;100946.32;105897;1256;60629;-54
2023/08/26 03:55:52;;;;;;;9.30;6.80;;;;;;;14.94;100.00;100943.71;105667;1257;73829;-54
2023/08/26 03:58:20;;;;;;;9.60;6.10;;;;;;;15.06;100.00;100944.95;105715;1259;63130;-54
2023/08/26 04:00:48;;;;;;;11.90;6.40;;;;;;;15.19;100.00;100944.21;105683;1253;72595;-52
2023/08/26 04:03:16;;;;;;;6.30;5.60;;;;;;;15.32;100.00;100940.17;105871;1256;61676;-53
2023/08/26 04:05:44;;;;;;;6.90;5.80;;;;;;;15.46;100.00;100937.48;105863;1256;60367;-52
2023/08/26 04:08:12;;;;;;;9.60;6.20;;;;;;;15.60;100.00;100936.20;105713;1254;72676;-52
2023/08/26 04:10:40;;;;;;;14.20;5.80;;;;;;;15.74;100.00;100934.34;105702;1258;63142;-52
2023/08/26 04:13:20;;;;;;;11.30;6.10;;;;;;;15.91;100.00;100937.46;105742;1254;70528;-53
2023/08/26 04:15:48;;;;;;;23.80;7.50;;;;;;;16.12;100.00;100939.41;105847;1257;61595;-55
2023/08/26 04:18:16;;;;;;;11.40;5.40;;;;;;;16.32;100.00;100942.73;105819;1254;60443;-52
2023/08/26 04:20:44;;;;;;;7.30;5.20;;;;;;;16.53;100.00;100939.91;105917;1253;71617;-52
2023/08/26 04:23:12;;;;;;;6.30;5.20;;;;;;;16.73;100.00;100933.95;105727;1255;63350;-52
2023/08/26 04:25:40;;;;;;;20.10;6.20;;;;;;;16.95;100.00;100927.91;105858;1254;71438;-52
2023/08/26 04:28:08;;;;;;;13.20;6.20;;;;;;;17.19;100.00;100920.77;105698;1256;60473;-53
2023/08/26 04:30:38;;;;;;;8.30;5.70;;;;;;;17.44;100.00;100921.56;105759;1257;60367;-53
2023/08/26 04:33:06;;;;;;;5.40;4.60;;;;;;;17.68;100.00;100924.08;105721;1257;73795;-51
2023/08/26 04:35:34;;;;;;;7.60;5.00;;;;;;;17.93;100.00;100929.37;105829;1257;63199;-52
2023/08/26 04:38:03;;;;;;;7.80;4.80;;;;;;;18.20;100.00;100927.36;105863;1254;70170;-53
2023/08/26 04:40:30;;;;;;;6.50;4.90;;;;;;;18.47;100.00;100932.68;105955;1253;60516;-52
2023/08/26 04:42:58;;;;;;;8.50;4.70;;;;;;;18.72;100.00;100936.98;105698;1257;60290;-53
2023/08/26 04:45:26;;;;;;;9.00;4.70;;;;;;;18.97;100.00;100936.77;105684;1254;72949;-53
2023/08/26 04:47:53;;;;;;;10.40;4.40;;;;;;;19.22;100.00;100938.41;105676;1257;63102;-53
2023/08/26 04:50:22;;;;;;;5.10;3.80;;;;;;;19.46;100.00;100944.32;105718;1254;72591;-54
2023/08/26 04:52:49;;;;;;;15.00;4.30;;;;;;;19.68;100.00;100953.42;105717;1257;60479;-52
2023/08/26 04:55:17;;;;;;;10.20;4.80;;;;;;;19.86;100.00;100971.08;105877;1256;60332;-52
2023/08/26 04:57:46;;;;;;;8.70;4.50;;;;;;;20.03;100.00;100990.77;105908;1257;72414;-53
2023/08/26 05:00:16;;;;;;;8.90;4.20;;;;;;;20.20;100.00;101018.32;105829;1257;63649;-51
2023/08/26 05:02:45;;;;;;;6.50;4.30;;;;;;;20.37;100.00;101057.75;105902;1254;72486;-53
2023/08/26 05:05:13;;;;;;;4.80;4.40;;;;;;;20.54;100.00;101110.57;105894;1257;60455;-51
2023/08/26 05:07:41;;;;;;;7.60;4.00;;;;;;;20.71;100.00;101179.32;105731;1257;60364;-52
2023/08/26 05:10:09;;;;;;;7.20;4.20;;;;;;;20.92;100.00;101258.14;105835;1256;72536;-52
2023/08/26 05:12:36;;;;;;;10.10;4.60;;;;;;;21.11;100.00;101357.02;105890;1257;63250;-52
2023/08/26 05:15:05;;;;;;;10.00;3.40;;;;;;;21.28;100.00;101445.19;105819;1254;72702;-52
2023/08/26 05:17:34;;;;;;;5.60;3.70;;;;;;;21.46;100.00;101462.77;105819;1253;60463;-54
2023/08/26 05:20:03;;;;;;;8.40;3.50;;;;;;;21.59;100.00;101411.70;105883;1257;60451;-53
2023/08/26 05:22:30;;;;;;;6.10;3.50;;;;;;;21.67;100.00;101280.53;105900;1254;73852;-54
2023/08/26 05:24:58;;;;;;;5.80;3.80;;;;;;;21.68;100.00;101118.74;105835;1257;64464;-53
2023/08/26 05:27:27;;;;;;;5.80;3.90;;;;;;;21.68;100.00;100982.81;105811;1257;71438;-52
2023/08/26 05:29:55;;;;;;;9.10;3.80;;;;;;;21.64;100.00;100852.23;105942;1252;60646;-54
2023/08/26 05:32:25;;;;;;;10.20;4.30;;;;;;;21.63;100.00;100789.77;105905;1253;60462;-52
2023/08/26 05:34:52;;;;;;;12.60;4.30;;;;;;;21.63;100.00;100761.53;105843;1254;74299;-53
2023/08/26 05:37:22;;;;;;;8.90;4.00;;;;;;;21.62;100.00;100754.34;105824;1254;62789;-52
2023/08/26 05:39:49;;;;;;;4.80;3.90;;;;;;;21.63;100.00;100733.58;105741;1253;72625;-52
2023/08/26 05:42:17;;;;;;;6.50;4.20;;;;;;;21.64;100.00;100692.95;105693;1257;60534;-53
2023/08/26 05:44:45;;;;;;;7.60;4.10;;;;;;;21.66;100.00;100652.13;105762;1257;60460;-53
2023/08/26 05:47:13;;;;;;;10.00;3.70;;;;;;;21.69;100.00;100626.82;105748;1258;72709;-54
2023/08/26 05:49:40;;;;;;;6.60;4.20;;;;;;;21.72;100.00;100600.30;105806;1253;64479;-51
2023/08/26 05:52:08;;;;;;;5.30;3.50;;;;;;;21.74;100.00;100580.00;105696;1254;71511;-53
2023/08/26 05:54:36;;;;;;;5.00;3.40;;;;;;;21.76;100.00;100545.11;105703;1258;61631;-53
2023/08/26 05:57:05;;;;;;;10.90;3.90;;;;;;;21.79;100.00;100505.55;105807;1253;60335;-53
2023/08/26 05:59:33;;;;;;;5.70;4.20;;;;;;;21.86;100.00;100481.23;105781;1259;72286;-52
2023/08/26 06:02:03;;;;;;;7.30;3.50;;;;;;;21.92;100.00;100454.36;105859;1256;64437;-53
2023/08/26 06:04:30;;;;;;;8.40;4.10;;;;;;;21.96;100.00;100423.30;105832;1257;70670;-53
2023/08/26 06:06:58;;;;;;;4.00;3.60;;;;;;;22.01;100.00;100427.24;105704;1258;60445;-53
2023/08/26 06:09:26;;;;;;;8.70;3.50;;;;;;;22.08;100.00;100437.79;105655;1257;60728;-53
2023/08/26 06:11:55;;;;;;;5.50;3.60;;;;;;;22.17;100.00;100432.33;105772;1254;72323;-53
2023/08/26 06:14:22;;;;;;;9.70;4.20;;;;;;;22.25;100.00;100421.92;105713;1257;64396;-54
2023/08/26 06:16:53;;;;;;;6.60;4.10;;;;;;;22.33;100.00;100412.42;105786;1254;70760;-56
2023/08/26 06:19:21;;;;;;;7.20;3.70;;;;;;;22.40;100.00;100388.71;105722;1253;60488;-55
2023/08/26 06:21:49;;;;;;;13.50;4.20;;;;;;;22.49;100.00;100375.13;105712;1258;60479;-52
2023/08/26 06:24:17;;;;;;;8.20;3.60;;;;;;;22.59;100.00;100371.77;105707;1253;73842;-53
2023/08/26 06:26:45;;;;;;;7.20;3.70;;;;;;;22.71;100.00;100372.36;105699;1254;63273;-52
2023/08/26 06:29:17;;;;;;;12.40;4.10;;;;;;;22.84;100.00;100372.33;105664;1254;71877;-51
2023/08/26 06:31:45;;;;;;;6.60;4.20;;;;;;;22.99;100.00;100370.55;105723;1256;60537;-53
2023/08/26 06:34:13;;;;;;;5.10;3.90;;;;;;;23.14;100.00;100367.38;105721;1257;60414;-53
2023/08/26 06:36:45;;;;;;;9.30;4.10;;;;;;;23.28;100.00;100369.73;105733;1253;72641;-53
2023/08/26 06:39:13;;;;;;;6.30;4.10;;;;;;;23.38;100.00;100372.34;105747;1253;64075;-54
2023/08/26 06:41:41;;;;;;;5.60;3.80;;;;;;;23.45;100.00;100386.63;105681;1257;71449;-51
2023/08/26 06:44:09;;;;;;;8.30;4.30;;;;;;;23.57;100.00;100400.91;105762;1253;60589;-52
2023/08/26 06:46:37;;;;;;;8.90;3.60;;;;;;;23.73;100.00;100419.99;105707;1257;60378;-52
2023/08/26 06:49:05;;;;;;;6.00;3.90;;;;;;;23.95;100.00;100429.09;105716;1253;72661;-53
2023/08/26 06:51:33;;;;;;;9.60;3.40;;;;;;;24.21;100.00;100438.11;105690;1253;64502;-53
2023/08/26 06:54:01;;;;;;;5.70;4.00;;;;;;;24.50;100.00;100446.80;105708;1254;71683;-54
2023/08/26 06:56:29;;;;;;;4.80;4.10;;;;;;;24.75;100.00;100482.86;105731;1255;60601;-52
2023/08/26 06:58:57;;;;;;;5.00;3.70;;;;;;;24.93;100.00;100520.98;105697;1258;60455;-53
2023/08/26 07:01:25;;;;;;;6.00;3.90;;;;;;;25.07;100.00;100543.34;105676;1253;74286;-52
2023/08/26 07:03:53;;;;;;;6.70;4.00;;;;;;;25.25;100.00;100586.95;105686;1258;64370;-53
2023/08/26 07:06:24;;;;;;;8.30;4.00;;;;;;;25.42;100.00;100630.69;105729;1256;71393;-54
2023/08/26 07:08:52;;;;;;;8.00;3.60;;;;;;;25.58;100.00;100673.31;105894;1254;61342;-53
2023/08/26 07:11:20;;;;;;;5.50;3.70;;;;;;;25.78;100.00;100688.86;105770;1258;59653;-54
2023/08/26 07:13:47;;;;;;;9.50;3.90;;;;;;;26.04;100.00;100691.23;105571;1256;73071;-52
2023/08/26 07:16:16;;;;;;;4.70;3.20;;;;;;;26.27;100.00;100715.04;105619;1255;63288;-53
2023/08/26 07:18:44;;;;;;;11.00;3.50;;;;;;;26.56;100.00;100719.41;105631;1254;72683;-54
2023/08/26 07:21:12;;;;;;;4.60;3.70;;;;;;;26.89;100.00;100729.48;105609;1258;60493;-53
2023/08/26 07:23:40;;;;;;;4.20;3.70;;;;;;;27.13;99.93;100720.05;105714;1253;60445;-53
2023/08/26 07:26:08;;;;;;;6.00;3.80;;;;;;;27.28;99.97;100744.48;105635;1257;72196;-53
2023/08/26 07:28:37;;;;;;;5.00;3.40;;;;;;;27.38;100.00;100753.90;105549;1257;64432;-54
2023/08/26 07:31:08;;;;;;;4.10;3.70;;;;;;;27.44;99.96;100758.00;105602;1254;72677;-53
2023/08/26 07:33:36;;;;;;;6.30;3.10;;;;;;;27.58;98.02;100757.56;105620;1254;62598;-53
2023/08/26 07:36:08;;;;;;;6.60;3.70;;;;;;;27.79;92.34;100751.88;105644;1253;60647;-53
2023/08/26 07:38:37;;;;;;;4.60;3.70;;;;;;;28.07;88.60;100745.19;105842;1257;73768;-53
2023/08/26 07:41:05;;;;;;;7.10;3.70;;;;;;;28.25;82.46;100724.51;105800;1254;63288;-53
2023/08/26 07:43:33;;;;;;;6.10;3.10;;;;;;;28.33;80.16;100730.20;105731;1253;71684;-51
2023/08/26 07:46:01;;;;;;;6.60;3.30;;;;;;;28.37;79.70;100745.73;105590;1253;60421;-53
2023/08/26 07:48:32;;;;;;;5.70;3.60;;;;;;;28.46;80.66;100767.67;105710;1253;60332;-53
2023/08/26 07:51:02;;;;;;;7.60;3.70;;;;;;;28.60;81.76;100779.27;105635;1253;75577;-52
2023/08/26 07:53:30;;;;;;;3.70;3.40;;;;;;;28.73;79.53;100758.90;105706;1254;63106;-53
2023/08/26 07:55:58;;;;;;;6.30;3.40;;;;;;;28.85;77.24;100747.70;105637;1254;70720;-54
2023/08/26 07:58:25;;;;;;;3.90;3.60;;;;;;;29.02;73.75;100715.09;105716;1257;60885;-54
2023/08/26 08:00:53;;;;;;;4.90;3.10;;;;;;;29.18;70.48;100681.45;105635;1258;60355;-53
2023/08/26 08:03:21;;;;;;;9.90;3.80;;;;;;;29.30;67.04;100632.94;105667;1254;73811;-54
2023/08/26 08:05:49;;;;;;;3.50;3.20;;;;;;;29.40;66.62;100653.81;105747;1253;63559;-54
2023/08/26 08:08:17;;;;;;;11.20;3.70;;;;;;;29.47;62.98;100572.17;105750;1257;72727;-55
2023/08/26 08:10:45;;;;;;;16.20;4.30;;;;;;;29.41;62.35;100582.71;105658;1257;60510;-53
2023/08/26 08:13:13;;;;;;;14.30;2.90;;;;;;;29.31;60.35;100529.98;105859;1254;60425;-54
2023/08/26 08:15:40;;;;;;;12.60;3.30;;;;;;;29.27;62.04;100627.14;105594;1254;72821;-52
2023/08/26 08:18:08;;;;;;;19.60;3.80;;;;;;;29.39;62.99;100651.30;105800;1253;63251;-54
2023/08/26 08:20:37;;;;;;;10.90;3.30;;;;;;;29.50;62.48;100641.85;105692;1254;71459;-54
2023/08/26 08:23:05;;;;;;;5.00;3.30;;;;;;;29.62;61.74;100616.21;105634;1257;60451;-54
2023/08/26 08:25:33;;;;;;;12.80;3.10;;;;;;;29.79;61.01;100595.88;105737;1257;60428;-55
2023/08/26 08:28:02;;;;;;;5.80;3.40;;;;;;;30.03;60.02;100560.27;105825;1253;72638;-54
2023/08/26 08:30:29;;;;;;;10.60;3.20;;;;;;;30.15;57.73;100464.91;105729;1253;63659;-53
2023/08/26 08:32:57;;;;;;;6.80;2.90;;;;;;;30.17;57.37;100471.20;105654;1253;72823;-52
2023/08/26 08:35:26;;;;;;;12.50;3.40;;;;;;;30.21;56.51;100429.04;105622;1254;60533;-52
2023/08/26 08:37:53;;;;;;;6.60;3.50;;;;;;;30.14;55.34;100377.77;105677;1254;60402;-54
2023/08/26 08:40:22;;;;;;;8.20;3.00;;;;;;;30.13;54.89;100370.98;105644;1253;72741;-53
2023/08/26 08:42:49;;;;;;;4.20;2.40;;;;;;;30.14;52.59;100201.36;105708;1253;63186;-53
2023/08/26 08:45:17;;;;;;;5.40;2.50;;;;;;;30.09;52.43;100222.42;105648;1254;71630;-53
2023/08/26 08:47:46;;;;;;;4.20;3.00;;;;;;;29.89;52.82;100282.66;105653;1254;60453;-55
2023/08/26 08:50:14;;;;;;;6.80;2.50;;;;;;;29.70;52.03;100250.18;105824;1257;60454;-53
2023/08/26 08:52:42;;;;;;;8.20;2.70;;;;;;;29.44;53.23;100370.20;105725;1254;72522;-53
2023/08/26 08:55:10;;;;;;;17.90;3.40;;;;;;;29.38;53.92;100475.09;105745;1254;63142;-52
2023/08/26 08:57:37;;;;;;;24.60;3.20;;;;;;;29.45;55.13;100561.83;105920;1253;72646;-53
2023/08/26 09:00:06;;;;;;;5.20;3.00;;;;;;;29.57;55.77;100582.07;105583;1257;60458;-53
2023/08/26 09:02:42;;;;;;;6.20;2.50;;;;;;;29.74;55.70;100570.45;105712;1253;60351;-53
2023/08/26 09:05:10;;;;;;;5.00;2.10;;;;;;;29.88;51.71;100226.08;105651;1253;72574;-53
2023/08/26 09:07:38;;;;;;;8.20;2.50;;;;;;;29.86;47.93;99883.69;105657;1253;63082;-60
2023/08/26 09:10:14;;;;;;;14.10;2.60;;;;;;;29.55;46.80;99758.45;105658;1254;71270;-54
2023/08/26 09:12:41;;;;;;;5.10;1.90;;;;;;;29.23;47.59;99871.58;105662;1253;60452;-54
2023/08/26 09:15:09;;;;;;;9.00;2.40;;;;;;;28.96;47.64;99921.77;105715;1254;60424;-55
2023/08/26 09:17:37;;;;;;;8.10;2.00;;;;;;;28.86;49.18;100101.81;105675;1257;73079;-55
2023/08/26 09:20:06;;;;;;;14.50;2.30;;;;;;;28.86;49.48;100154.69;105524;1254;63145;-54
2023/08/26 09:22:34;;;;;;;5.30;2.80;;;;;;;28.84;49.65;100184.91;105668;1254;73112;-54
2023/08/26 09:25:03;;;;;;;6.60;2.30;;;;;;;28.94;48.74;100101.52;105631;1254;60424;-54
2023/08/26 09:27:40;;;;;;;10.00;2.80;;;;;;;29.06;48.35;100051.42;105661;1259;60439;-54
2023/08/26 09:30:08;;;;;;;5.10;2.80;;;;;;;29.21;47.24;99914.67;105835;1256;73828;-54
2023/08/26 09:32:37;;;;;;;4.00;2.40;;;;;;;29.21;46.87;99876.02;105639;1254;62862;-54
2023/08/26 09:35:12;;;;;;;9.10;2.40;;;;;;;29.21;47.97;100013.67;105770;1254;71394;-55
2023/08/26 09:37:44;;;;;;;9.70;3.00;;;;;;;29.24;48.76;100090.61;105844;1254;60901;-55
2023/08/26 09:40:16;;;;;;;9.20;2.70;;;;;;;29.43;50.20;100254.81;105832;1253;60485;-54
2023/08/26 09:42:44;;;;;;;13.00;2.90;;;;;;;29.71;47.79;100020.55;105904;1257;73816;-55
2023/08/26 09:45:17;;;;;;;11.40;3.20;;;;;;;29.85;47.47;99956.11;105735;1257;64372;-54
2023/08/26 09:47:48;;;;;;;12.30;3.80;;;;;;;29.89;47.57;99980.39;105644;1256;71507;-54
2023/08/26 09:50:17;;;;;;;9.40;3.00;;;;;;;30.03;47.18;99957.01;105669;1257;60421;-55
2023/08/26 09:52:46;;;;;;;5.90;2.80;;;;;;;30.12;47.00;99900.58;105671;1257;60352;-52
2023/08/26 09:55:14;;;;;;;17.50;3.80;;;;;;;30.27;46.70;99908.24;105750;1257;73810;-53
2023/08/26 09:57:43;;;;;;;10.90;3.30;;;;;;;30.42;46.12;99806.71;105790;1253;62909;-54
2023/08/26 10:00:11;;;;;;;13.90;3.80;;;;;;;30.54;45.96;99801.08;105645;1253;72672;-53
2023/08/26 10:03:02;;;;;;;11.20;4.10;;;;;;;30.59;45.59;99763.59;105736;1254;60418;-54
2023/08/26 10:05:33;;;;;;;10.00;4.00;;;;;;;30.52;46.36;99887.78;105666;1257;60325;-54
2023/08/26 10:08:00;;;;;;;7.00;3.50;;;;;;;30.56;46.60;99906.21;105676;1258;73854;-53
2023/08/26 10:10:32;;;;;;;6.50;3.10;;;;;;;30.55;46.82;99927.38;105737;1254;64390;-54
2023/08/26 10:13:03;;;;;;;12.70;3.50;;;;;;;30.50;46.89;99956.70;105779;1254;71218;-53
2023/08/26 10:15:33;;;;;;;25.40;4.40;;;;;;;30.40;46.94;99945.95;105720;1253;61038;-53
2023/08/26 10:18:06;;;;;;;23.70;3.70;;;;;;;30.22;46.90;99972.95;105734;1257;61092;-53
2023/08/26 10:20:34;;;;;;;11.60;3.10;;;;;;;30.10;46.68;99964.08;105668;1253;73351;-54
2023/08/26 10:23:06;;;;;;;12.80;3.60;;;;;;;30.07;47.72;100070.09;105705;1255;63298;-53
2023/08/26 10:25:33;;;;;;;37.10;4.50;;;;;;;30.09;47.46;100071.85;105581;1255;72593;-53
2023/08/26 10:28:03;;;;;;;14.00;3.10;;;;;;;30.18;47.86;100098.50;105523;1257;60537;-54
2023/08/26 10:30:31;;;;;;;16.50;3.00;;;;;;;30.17;46.52;99972.30;105845;1260;60358;-54
2023/08/26 10:33:00;;;;;;;15.70;3.50;;;;;;;30.06;46.58;99969.85;105729;1254;72584;-55
2023/08/26 10:35:28;;;;;;;7.70;2.90;;;;;;;29.89;46.99;100033.05;105720;1253;64532;-53
2023/08/26 10:38:09;;;;;;;5.50;3.40;;;;;;;29.72;47.51;100096.16;105576;1256;71560;-55
2023/08/26 10:40:37;;;;;;;8.60;2.90;;;;;;;29.65;47.54;100092.10;109100;1254;303849;-54
2023/08/26 10:43:54;;;;;;;;;;;;;;;29.77;47.65;100109.38;102606;1294;600598;-56
2023/08/26 10:46:36;;;;;;;11.10;3.60;;;;;;;30.00;48.75;100202.08;104906;1263;62974;-55
2023/08/26 10:49:05;;;;;;;18.20;4.50;;;;;;;30.43;49.20;100277.27;108690;1264;59113;-53
2023/08/26 10:51:36;;;;;;;12.60;3.30;;;;;;;30.89;49.24;100236.83;109445;1253;72398;-54
2023/08/26 10:54:04;;;;;;;10.50;3.10;;;;;;;31.41;48.56;100167.77;109361;1252;64386;-55
2023/08/26 10:56:33;;;;;;;13.30;3.10;;;;;;;31.83;47.22;99977.11;109127;1252;246509;-54
2023/08/26 10:59:03;;;;;;;8.60;2.90;;;;;;;32.15;45.01;99727.34;109565;1250;62505;-54
2023/08/26 11:01:35;;;;;;;10.70;3.30;;;;;;;32.30;44.54;99605.89;109592;1251;60043;-53
2023/08/26 11:04:04;;;;;;;14.70;3.00;;;;;;;32.41;45.85;99795.67;109517;1251;72695;-53
2023/08/26 11:10:25;;;;;;;8.90;3.10;;;;;;;32.99;46.72;99874.67;102422;1293;615545;-55
2023/08/26 11:12:55;;;;;;;8.20;3.00;;;;;;;33.53;44.90;99699.94;105176;1264;59209;-53
2023/08/26 11:15:22;;;;;;;6.20;3.10;;;;;;;33.87;43.28;99480.02;105143;1264;60268;-54
2023/08/26 11:17:49;;;;;;;5.90;3.90;;;;;;;34.02;43.18;99434.33;105081;1263;72162;-55
2023/08/26 11:20:18;;;;;;;7.80;2.70;;;;;;;33.97;43.84;99525.31;105554;1257;63578;-56
2023/08/26 11:22:45;;;;;;;28.30;16.10;;;;;;;33.93;44.15;99587.23;105401;1253;238894;-54